createdAt,value
2023-03-22T00:00:31.266Z,99871.09
2023-03-22T00:02:34.324Z,99875.59
2023-03-22T00:04:39.037Z,99865.63
2023-03-22T00:06:42.340Z,99870.59
2023-03-22T00:08:46.148Z,99870.00
2023-03-22T00:10:49.238Z,99865.72
2023-03-22T00:12:52.206Z,99873.06
2023-03-22T00:14:55.144Z,99863.69
2023-03-22T00:16:59.260Z,99874.41
2023-03-22T00:19:02.342Z,99868.72
2023-03-22T00:21:07.547Z,99868.56
2023-03-22T00:23:10.560Z,99865.25
2023-03-22T00:25:13.730Z,99855.41
2023-03-22T00:27:16.734Z,99860.53
2023-03-22T00:29:22.504Z,99858.50
2023-03-22T00:31:25.453Z,99863.59
2023-03-22T00:33:29.136Z,99856.19
2023-03-22T00:35:32.201Z,99851.91
2023-03-22T00:37:38.709Z,99856.59
2023-03-22T00:39:41.714Z,99852.84
2023-03-22T00:41:45.192Z,99845.59
2023-03-22T00:43:50.309Z,99848.59
2023-03-22T00:45:53.265Z,99843.72
2023-03-22T00:47:57.428Z,99844.22
2023-03-22T00:50:00.422Z,99851.47
2023-03-22T00:52:03.452Z,99840.97
2023-03-22T00:54:07.902Z,99850.09
2023-03-22T00:56:13.861Z,99838.16
2023-03-22T00:58:27.097Z,99833.91
2023-03-22T01:00:31.603Z,99830.22
2023-03-22T01:02:34.967Z,99830.75
2023-03-22T01:04:38.176Z,99824.28
2023-03-22T01:06:41.677Z,99817.75
2023-03-22T01:08:44.892Z,99816.84
2023-03-22T01:10:50.282Z,99813.00
2023-03-22T01:12:54.069Z,99813.78
2023-03-22T01:14:57.551Z,99801.84
2023-03-22T01:17:00.503Z,99798.56
2023-03-22T01:19:04.131Z,99800.97
2023-03-22T01:21:07.909Z,99798.75
2023-03-22T01:23:12.345Z,99799.78
2023-03-22T01:25:16.422Z,99794.31
2023-03-22T01:27:21.148Z,99801.88
2023-03-22T01:29:24.128Z,99791.25
2023-03-22T01:31:27.192Z,99798.41
2023-03-22T01:33:30.215Z,99794.22
2023-03-22T01:35:34.162Z,99798.31
2023-03-22T01:37:37.109Z,99789.63
2023-03-22T01:39:40.298Z,99795.00
2023-03-22T01:41:45.599Z,99792.25
2023-03-22T01:44:09.861Z,99784.06
2023-03-22T01:46:13.599Z,99787.66
2023-03-22T01:48:21.407Z,99784.41
2023-03-22T01:50:25.919Z,99781.00
2023-03-22T01:52:28.971Z,99790.38
2023-03-22T01:54:45.302Z,99785.78
2023-03-22T01:57:02.107Z,99781.94
2023-03-22T01:59:15.025Z,99775.72
2023-03-22T02:01:37.195Z,99777.66
2023-03-22T02:03:48.945Z,99775.38
2023-03-22T02:05:52.060Z,99772.28
2023-03-22T02:07:58.290Z,99772.78
2023-03-22T02:10:02.726Z,99764.44
2023-03-22T02:12:23.975Z,99757.59
2023-03-22T02:14:38.928Z,99754.03
2023-03-22T02:17:22.249Z,99746.53
2023-03-22T02:20:22.755Z,99746.38
2023-03-22T02:22:41.949Z,99740.41
2023-03-22T02:25:09.256Z,99746.38
2023-03-22T02:27:29.224Z,99750.31
2023-03-22T02:29:39.614Z,99742.69
2023-03-22T02:32:05.314Z,99739.72
2023-03-22T02:34:45.686Z,99731.34
2023-03-22T02:37:33.131Z,99738.69
2023-03-22T02:39:41.301Z,99730.94
2023-03-22T02:41:52.361Z,99731.88
2023-03-22T02:44:02.816Z,99729.97
2023-03-22T02:46:08.615Z,99733.38
2023-03-22T02:48:15.044Z,99731.69
2023-03-22T02:50:23.978Z,99733.75
2023-03-22T02:52:30.634Z,99728.78
2023-03-22T02:54:39.643Z,99730.34
2023-03-22T02:56:45.206Z,99712.41
2023-03-22T02:58:50.418Z,99706.88
2023-03-22T03:00:57.296Z,99706.81
2023-03-22T03:03:11.163Z,99711.31
2023-03-22T03:05:15.181Z,99704.16
2023-03-22T03:07:20.732Z,99699.81
2023-03-22T03:09:24.253Z,99702.03
2023-03-22T03:11:28.510Z,99697.78
2023-03-22T03:13:31.446Z,99703.41
2023-03-22T03:15:35.847Z,99701.44
2023-03-22T03:17:51.883Z,99706.63
2023-03-22T03:20:02.689Z,99695.66
2023-03-22T03:22:17.098Z,99700.34
2023-03-22T03:24:24.200Z,99699.63
2023-03-22T03:26:33.865Z,99693.69
2023-03-22T03:28:40.140Z,99692.47
2023-03-22T03:30:48.368Z,99697.25
2023-03-22T03:32:54.095Z,99683.94
2023-03-22T03:35:00.506Z,99701.84
2023-03-22T03:37:08.221Z,99687.19
2023-03-22T03:39:13.869Z,99682.75
2023-03-22T03:41:19.312Z,99685.66
2023-03-22T03:43:25.625Z,99678.75
2023-03-22T03:45:29.104Z,99685.84
2023-03-22T03:47:33.459Z,99675.78
2023-03-22T03:49:37.087Z,99686.66
2023-03-22T03:51:48.988Z,99681.91
2023-03-22T03:53:51.871Z,99673.63
2023-03-22T03:55:56.392Z,99676.78
2023-03-22T03:57:59.917Z,99679.88
2023-03-22T04:00:05.861Z,99676.63
2023-03-22T04:02:32.258Z,99673.63
2023-03-22T04:04:36.648Z,99677.03
2023-03-22T04:06:40.705Z,99681.03
2023-03-22T04:08:53.484Z,99682.56
2023-03-22T04:10:59.966Z,99683.28
2023-03-22T04:13:03.106Z,99682.59
2023-03-22T04:15:09.570Z,99679.50
2023-03-22T04:17:13.091Z,99674.47
2023-03-22T04:19:16.496Z,99683.69
2023-03-22T04:21:21.684Z,99678.63
2023-03-22T04:23:33.173Z,99671.16
2023-03-22T04:25:38.081Z,99671.97
2023-03-22T04:27:51.094Z,99670.06
2023-03-22T04:29:56.063Z,99669.72
2023-03-22T04:32:29.473Z,99670.88
2023-03-22T04:34:33.217Z,99665.69
2023-03-22T04:36:39.527Z,99666.22
2023-03-22T04:38:53.323Z,99661.88
2023-03-22T04:40:59.508Z,99662.53
2023-03-22T04:43:13.716Z,99665.41
2023-03-22T04:45:32.482Z,99665.88
2023-03-22T04:47:40.479Z,99659.09
2023-03-22T04:49:44.696Z,99668.69
2023-03-22T04:51:48.084Z,99671.59
2023-03-22T04:53:59.536Z,99664.75
2023-03-22T04:56:05.725Z,99665.63
2023-03-22T04:58:09.273Z,99679.81
2023-03-22T05:00:13.481Z,99663.63
2023-03-22T05:02:17.172Z,99663.28
2023-03-22T05:04:23.789Z,99670.28
2023-03-22T05:06:34.376Z,99664.88
2023-03-22T05:08:47.450Z,99661.84
2023-03-22T05:10:52.254Z,99658.72
2023-03-22T05:12:55.572Z,99657.19
2023-03-22T05:15:10.164Z,99657.88
2023-03-22T05:17:14.689Z,99663.84
2023-03-22T05:19:22.226Z,99671.06
2023-03-22T05:21:29.172Z,99661.25
2023-03-22T05:23:34.605Z,99666.91
2023-03-22T05:25:45.118Z,99660.03
2023-03-22T05:27:54.190Z,99664.66
2023-03-22T05:30:12.072Z,99670.19
2023-03-22T05:32:47.478Z,99669.56
2023-03-22T05:34:50.584Z,99667.75
2023-03-22T05:37:21.327Z,99670.56
2023-03-22T05:39:30.525Z,99665.44
2023-03-22T05:41:36.673Z,99654.97
2023-03-22T05:43:40.688Z,99663.97
2023-03-22T05:45:43.922Z,99661.19
2023-03-22T05:48:00.032Z,99656.94
2023-03-22T05:50:05.635Z,99658.72
2023-03-22T05:52:10.130Z,99664.59
2023-03-22T05:54:31.229Z,99662.94
2023-03-22T05:56:34.308Z,99655.41
2023-03-22T05:58:42.753Z,99660.09
2023-03-22T06:00:51.413Z,99653.56
2023-03-22T06:02:57.319Z,99656.50
2023-03-22T06:05:00.935Z,99652.56
2023-03-22T06:07:04.271Z,99656.31
2023-03-22T06:09:35.676Z,99649.84
2023-03-22T06:11:41.593Z,99652.56
2023-03-22T06:13:44.980Z,99652.19
2023-03-22T06:15:48.693Z,99649.75
2023-03-22T06:17:58.650Z,99638.75
2023-03-22T06:20:09.343Z,99642.84
2023-03-22T06:22:12.780Z,99647.28
2023-03-22T06:24:15.844Z,99638.81
2023-03-22T06:26:20.407Z,99640.28
2023-03-22T06:31:58.330Z,99635.34
2023-03-22T06:34:01.337Z,99638.13
2023-03-22T06:36:17.060Z,99628.31
2023-03-22T06:38:49.323Z,99631.50
2023-03-22T06:40:53.866Z,99627.00
2023-03-22T06:43:00.445Z,99630.38
2023-03-22T06:45:09.036Z,99640.53
2023-03-22T06:47:14.663Z,99634.50
2023-03-22T06:49:52.979Z,99639.13
2023-03-22T06:52:00.680Z,99631.19
2023-03-22T06:54:04.571Z,99634.78
2023-03-22T06:56:08.381Z,99631.09
2023-03-22T06:58:23.807Z,99631.13
2023-03-22T07:00:26.741Z,99645.38
2023-03-22T07:02:29.803Z,99627.28
2023-03-22T07:04:55.693Z,99626.94
2023-03-22T07:06:59.943Z,99624.09
2023-03-22T07:09:03.848Z,99613.38
2023-03-22T07:11:10.405Z,99621.00
2023-03-22T07:13:14.027Z,99627.84
2023-03-22T07:15:20.369Z,99619.25
2023-03-22T07:17:35.474Z,99620.88
2023-03-22T07:19:38.592Z,99614.03
2023-03-22T07:21:44.800Z,99623.47
2023-03-22T07:23:49.720Z,99612.78
2023-03-22T07:25:59.328Z,99610.09
2023-03-22T07:28:07.068Z,99611.06
2023-03-22T07:30:12.744Z,99616.78
2023-03-22T07:32:21.616Z,99601.19
2023-03-22T07:34:41.463Z,99618.69
2023-03-22T07:36:51.080Z,99595.50
2023-03-22T07:38:54.340Z,99596.94
2023-03-22T07:41:05.519Z,99601.50
2023-03-22T07:43:26.175Z,99606.00
2023-03-22T07:45:41.337Z,99601.16
2023-03-22T07:48:05.111Z,99604.75
2023-03-22T07:50:30.966Z,99602.03
2023-03-22T07:52:36.792Z,99596.94
2023-03-22T07:54:40.418Z,99595.09
2023-03-22T07:56:45.973Z,99588.41
2023-03-22T07:58:49.345Z,99590.09
2023-03-22T08:00:52.380Z,99585.53
2023-03-22T08:03:19.878Z,99583.22
2023-03-22T08:05:35.388Z,99587.06
2023-03-22T08:07:42.310Z,99582.34
2023-03-22T08:09:48.449Z,99572.59
2023-03-22T08:11:52.905Z,99577.59
2023-03-22T08:13:56.443Z,99558.28
2023-03-22T08:15:59.956Z,99585.97
2023-03-22T08:18:02.883Z,99573.84
2023-03-22T08:20:14.634Z,99567.91
2023-03-22T08:22:30.004Z,99562.69
2023-03-22T08:24:51.784Z,99585.78
2023-03-22T08:27:07.421Z,99557.75
2023-03-22T08:29:23.807Z,99571.66
2023-03-22T08:31:27.125Z,99591.97
2023-03-22T08:33:30.513Z,99580.03
2023-03-22T08:35:35.860Z,99595.72
2023-03-22T08:37:40.071Z,99581.97
2023-03-22T08:39:44.771Z,99591.50
2023-03-22T08:41:56.315Z,99616.78
2023-03-22T08:44:01.869Z,99602.50
2023-03-22T08:46:05.788Z,99583.00
2023-03-22T08:48:08.972Z,99590.91
2023-03-22T08:50:34.440Z,99589.63
2023-03-22T08:52:48.083Z,99600.41
2023-03-22T08:55:12.158Z,99578.53
2023-03-22T08:57:41.491Z,99580.34
2023-03-22T09:00:07.962Z,99591.53
2023-03-22T09:02:29.669Z,99572.38
2023-03-22T09:04:34.237Z,99568.75
2023-03-22T09:06:38.735Z,99583.03
2023-03-22T09:08:44.070Z,99574.28
2023-03-22T09:10:51.973Z,99582.25
2023-03-22T09:12:57.540Z,99572.72
2023-03-22T09:15:01.062Z,99593.00
2023-03-22T09:17:06.492Z,99577.06
2023-03-22T09:19:09.951Z,99591.94
2023-03-22T09:21:13.464Z,99570.06
2023-03-22T09:23:24.641Z,99560.66
2023-03-22T09:25:29.392Z,99558.34
2023-03-22T09:27:32.394Z,99579.38
2023-03-22T09:29:35.512Z,99555.56
2023-03-22T09:31:43.453Z,99558.50
2023-03-22T09:33:53.441Z,99551.69
2023-03-22T09:35:58.051Z,99556.19
2023-03-22T09:38:01.334Z,99547.06
2023-03-22T09:40:06.736Z,99537.09
2023-03-22T09:42:22.941Z,99539.88
2023-03-22T09:44:28.682Z,99546.06
2023-03-22T09:46:33.941Z,99535.78
2023-03-22T09:48:39.415Z,99545.00
2023-03-22T09:50:47.428Z,99533.59
2023-03-22T09:52:51.295Z,99536.09
2023-03-22T09:54:54.396Z,99535.03
2023-03-22T09:57:01.552Z,99543.88
2023-03-22T09:59:11.986Z,99523.97
2023-03-22T10:01:20.849Z,99519.88
2023-03-22T10:03:35.816Z,99525.03
2023-03-22T10:05:41.453Z,99513.22
2023-03-22T10:07:59.700Z,99514.09
2023-03-22T10:10:08.779Z,99521.47
2023-03-22T10:12:16.665Z,99517.22
2023-03-22T10:14:31.320Z,99531.00
2023-03-22T10:16:35.727Z,99530.66
2023-03-22T10:18:47.078Z,99521.53
2023-03-22T10:20:55.692Z,99529.19
2023-03-22T10:22:59.209Z,99518.78
2023-03-22T10:25:02.592Z,99530.59
2023-03-22T10:27:13.944Z,99522.91
2023-03-22T10:29:24.404Z,99513.91
2023-03-22T10:31:30.469Z,99500.13
2023-03-22T10:33:38.748Z,99511.72
2023-03-22T10:35:44.097Z,99517.28
2023-03-22T10:37:49.481Z,99521.47
2023-03-22T10:39:55.206Z,99524.81
2023-03-22T10:42:01.446Z,99535.13
2023-03-22T10:44:06.724Z,99529.81
2023-03-22T10:46:17.000Z,99515.28
2023-03-22T10:48:27.937Z,99524.13
2023-03-22T10:50:33.273Z,99535.13
2023-03-22T10:52:41.182Z,99521.09
2023-03-22T10:54:44.471Z,99534.78
2023-03-22T10:56:47.567Z,99546.53
2023-03-22T10:58:51.394Z,99543.13
2023-03-22T11:01:06.540Z,99543.88
2023-03-22T11:03:11.698Z,99532.34
2023-03-22T11:05:24.500Z,99539.38
2023-03-22T11:07:32.053Z,99539.63
2023-03-22T11:09:34.967Z,99552.50
2023-03-22T11:11:40.857Z,99556.44
2023-03-22T11:13:45.396Z,99546.25
2023-03-22T11:15:54.400Z,99552.50
2023-03-22T11:18:02.442Z,99554.06
2023-03-22T11:20:08.579Z,99545.31
2023-03-22T11:22:22.879Z,99545.66
2023-03-22T11:24:27.209Z,99528.72
2023-03-22T11:26:37.481Z,99541.16
2023-03-22T11:28:47.363Z,99537.78
2023-03-22T11:31:09.436Z,99539.03
2023-03-22T11:33:18.821Z,99527.47
2023-03-22T11:35:23.887Z,99529.47
2023-03-22T11:37:28.501Z,99553.75
2023-03-22T11:39:31.400Z,99528.94
2023-03-22T11:41:37.463Z,99532.63
2023-03-22T11:43:42.448Z,99520.97
2023-03-22T11:45:46.432Z,99522.31
2023-03-22T11:47:49.393Z,99527.41
2023-03-22T11:49:54.537Z,99519.25
2023-03-22T11:51:57.613Z,99529.44
2023-03-22T11:54:10.168Z,99515.63
2023-03-22T11:56:17.157Z,99528.56
2023-03-22T11:58:28.106Z,99522.03
2023-03-22T12:00:32.731Z,99513.09
2023-03-22T12:02:37.393Z,99522.50
2023-03-22T12:04:41.443Z,99519.84
2023-03-22T12:06:45.255Z,99516.94
2023-03-22T12:08:53.169Z,99512.38
2023-03-22T12:11:02.977Z,99513.66
2023-03-22T12:13:09.960Z,99527.47
2023-03-22T12:15:17.379Z,99526.81
2023-03-22T12:17:27.324Z,99507.50
2023-03-22T12:19:40.063Z,99514.69
2023-03-22T12:21:43.002Z,99535.53
2023-03-22T12:23:47.621Z,99522.84
2023-03-22T12:25:53.187Z,99522.81
2023-03-22T12:27:59.610Z,99522.19
2023-03-22T12:30:07.326Z,99527.22
2023-03-22T12:32:15.664Z,99498.50
2023-03-22T12:34:20.018Z,99504.50
2023-03-22T12:36:27.494Z,99522.44
2023-03-22T12:38:38.413Z,99494.13
2023-03-22T12:40:42.694Z,99485.41
2023-03-22T12:42:54.137Z,99481.31
2023-03-22T12:45:05.758Z,99492.69
2023-03-22T12:47:14.895Z,99531.44
2023-03-22T12:49:22.704Z,99498.22
2023-03-22T12:51:25.776Z,99506.97
2023-03-22T12:53:42.670Z,99493.13
2023-03-22T12:55:47.095Z,99498.22
2023-03-22T12:57:54.570Z,99505.19
2023-03-22T13:00:00.339Z,99506.28
2023-03-22T13:02:11.379Z,99514.84
2023-03-22T13:04:33.992Z,99522.91
2023-03-22T13:06:57.030Z,99517.53
2023-03-22T13:09:17.041Z,99517.78
2023-03-22T13:11:26.003Z,99510.75
2023-03-22T13:13:46.228Z,99508.25
2023-03-22T13:16:01.654Z,99513.00
2023-03-22T13:18:06.069Z,99529.94
2023-03-22T13:20:29.269Z,99520.91
2023-03-22T13:23:10.067Z,99529.88
2023-03-22T13:25:29.751Z,99533.09
2023-03-22T13:27:38.097Z,99530.28
2023-03-22T13:29:42.122Z,99539.41
2023-03-22T13:31:47.947Z,99530.91
2023-03-22T13:33:55.414Z,99535.84
2023-03-22T13:36:01.354Z,99531.66
2023-03-22T13:38:14.573Z,99533.91
2023-03-22T13:40:28.699Z,99529.34
2023-03-22T13:42:36.550Z,99533.50
2023-03-22T13:44:42.928Z,99530.78
2023-03-22T13:46:50.989Z,99532.22
2023-03-22T13:49:00.781Z,99523.09
2023-03-22T13:51:12.302Z,99535.41
2023-03-22T13:53:21.946Z,99529.34
2023-03-22T13:55:42.605Z,99528.53
2023-03-22T13:57:49.338Z,99529.91
2023-03-22T14:00:12.091Z,99523.56
2023-03-22T14:02:19.618Z,99528.94
2023-03-22T14:04:26.758Z,99530.03
2023-03-22T14:06:31.880Z,99524.63
2023-03-22T14:08:37.784Z,99531.53
2023-03-22T14:10:43.875Z,99529.81
2023-03-22T14:12:51.958Z,99529.91
2023-03-22T14:14:57.673Z,99512.81
2023-03-22T14:17:05.136Z,99503.56
2023-03-22T14:19:12.730Z,99508.25
2023-03-22T14:21:18.636Z,99500.41
